Home > Products > Valid Products > MTR

000
SAUS45 KMSO 210853
MTRP69
METAR KP69 210852Z AUTO 32005KT 04/02 A3029 RMK AO1 SLP258 T00390017
51006





000
SAUS45 KMSO 210754
MTRP69
METAR KP69 210752Z AUTO VRB03KT 04/02 A3029 RMK AO1 SLP260 T00440017
401890044





000
SAUS45 KMSO 210654
MTRP69
METAR KP69 210652Z AUTO 33004KT 05/02 A3029 RMK AO1 SLP258 T00500022





000
SAUS45 KMSO 210553
MTRP69
METAR KP69 210552Z AUTO 00000KT 06/02 A3027 RMK AO1 SLP254 T00610022
10150 20061 51013





000
SAUS45 KMSO 210453
MTRP69
METAR KP69 210452Z AUTO 33004KT 07/03 A3027 RMK AO1 SLP255 T00670028





000
SAUS45 KMSO 210353
MTRP69
METAR KP69 210352Z AUTO 00000KT 08/03 A3026 RMK AO1 SLP253 T00780033





000
SAUS45 KMSO 210253
MTRP69
METAR KP69 210252Z AUTO 00000KT 08/04 A3023 RMK AO1 SLP245 T00830039
53003





000
SAUS45 KMSO 210153
MTRP69
METAR KP69 210152Z AUTO 35003KT 11/03 A3022 RMK AO1 SLP240 T01110033





000
SAUS45 KMSO 210053
MTRP69
METAR KP69 210052Z AUTO 00000KT 13/04 A3022 RMK AO1 SLP239 T01280039





000
SAUS45 KMSO 202354
MTRP69
METAR KP69 202352Z AUTO 00000KT 16/00 A3022 RMK AO1 SLP236 T01560000
10189 20133 56008





000
SAUS45 KMSO 202254
MTRP69
METAR KP69 202252Z AUTO 16008KT 18/M01 A3022 RMK AO1 SLP234
T01781011





000
SAUS45 KMSO 202154
MTRP69
METAR KP69 202152Z AUTO VRB03KT 18/M01 A3023 RMK AO1 SLP234
T01781006





000
SAUS45 KMSO 202054
MTRP69
METAR KP69 202052Z AUTO 00000KT 18/M03 A3025 RMK AO1 SLP240
T01781028 58020





000
SAUS45 KMSO 201954
MTRP69
METAR KP69 201952Z AUTO 00000KT 16/M01 A3027 RMK AO1 SLP249
T01561006





000
SAUS45 KMSO 201854
MTRP69
METAR KP69 201852Z AUTO VRB04KT 16/01 A3029 RMK AO1 SLP257 T01560006





000
SAUS45 KMSO 201753
MTRP69
METAR KP69 201752Z AUTO 17003KT 13/02 A3031 RMK AO1 SLP264 T01330017
10144 20050 58005





000
SAUS45 KMSO 201654
MTRP69
METAR KP69 201652Z AUTO 00000KT 11/04 A3032 RMK AO1 SLP271 T01060044





000
SAUS45 KMSO 201554
MTRP69
METAR KP69 201552Z AUTO 00000KT 08/04 A3033 RMK AO1 SLP271 T00830044





000
SAUS45 KMSO 201454
MTRP69
METAR KP69 201452Z AUTO 35003KT 06/04 A3032 RMK AO1 SLP268 T00610044
51016





000
SAUS45 KMSO 201354
MTRP69
METAR KP69 201352Z AUTO 34003KT 05/04 A3031 RMK AO1 SLP263 T00500039





000
SAUS45 KMSO 201254
MTRP69
METAR KP69 201252Z AUTO 00000KT 05/04 A3029 RMK AO1 SLP260 T00500044





000
SAUS45 KMSO 201153
MTRP69
METAR KP69 201152Z AUTO 00000KT 06/04 A3027 RMK AO1 SLP251 70005
T00560044 10083 20056 51021





000
SAUS45 KMSO 201053
MTRP69
METAR KP69 201052Z AUTO 00000KT 06/04 A3026 RMK AO1 SLP244 T00560044





000
SAUS45 KMSO 200953
MTRP69
METAR KP69 200952Z AUTO 00000KT 06/06 A3024 RMK AO1 SLP236 T00610056





000
SAUS45 KMSO 200853
MTRP69
METAR KP69 200852Z AUTO 00000KT 07/06 A3021 RMK AO1 SLP222 T00720061
53024





000
SAUS45 KMSO 200754
MTRP69
METAR KP69 200752Z AUTO 00000KT 07/06 A3018 RMK AO1 SLP217 T00720061
402391006





000
SAUS45 KMSO 200654
MTRP69
METAR KP69 200652Z AUTO 33003KT 08/07 A3016 RMK AO1 SLP211 T00780067





000
SAUS45 KMSO 200554
MTRP69
METAR KP69 200552Z AUTO 00000KT 08/07 A3013 RMK AO1 SLP204 P0004
60005 T00830067 10189 20083 51057





000
SAUS45 KMSO 200453
MTRP69
METAR KP69 200452Z AUTO 00000KT 10/07 A3012 RMK AO1 SLP204 P0001
T01000067





000
SAUS45 KMSO 200354
MTRP69
METAR KP69 200352Z AUTO VRB03KT 14/03 A3007 RMK AO1 PRESRR SLP186
T01390028





000
SAUS45 KMSO 200254
MTRP69
METAR KP69 200252Z AUTO VRB03KT 17/M02 A2996 RMK AO1 PRESRR SLP149
T01721017 53060





000
SAUS45 KMSO 200154
MTRP69
METAR KP69 200152Z AUTO 13008KT 19/M01 A2988 RMK AO1 PRESRR SLP121
T01891006





000
SAUS45 KMSO 200054
MTRP69
METAR KP69 200052Z AUTO VRB03KT 16/09 A2980 RMK AO1 SLP097 T01560089





000
SAUS45 KMSO 192354
MTRP69
METAR KP69 192352Z AUTO 00000KT 17/08 A2978 RMK AO1 SLP086 T01720083
10239 20133 55011





000
SAUS45 KMSO 192254
MTRP69
METAR KP69 192252Z AUTO 00000KT 19/07 A2977 RMK AO1 SLP084 T01940072





000
SAUS45 KMSO 192154
MTRP69
METAR KP69 192152Z AUTO 00000KT 20/07 A2978 RMK AO1 SLP086 T02000067





000
SAUS45 KMSO 192054
MTRP69
METAR KP69 192052Z AUTO 00000KT 23/M01 A2981 RMK AO1 SLP091
T02281006 56041





000
SAUS45 KMSO 191954
MTRP69
METAR KP69 191952Z AUTO 36003KT 19/M02 A2984 RMK AO1 SLP105
T01891017





000
SAUS45 KMSO 191854
MTRP69
METAR KP69 191852Z AUTO 01003KT 16/M01 A2989 RMK AO1 SLP123
T01561006





000
SAUS45 KMSO 191754
MTRP69
METAR KP69 191752Z AUTO 01004KT 14/M01 A2993 RMK AO1 SLP140
T01391011 10139 21006 58039





000
SAUS45 KMSO 191653
MTRP69
METAR KP69 191652Z AUTO 36004KT 09/M01 A2998 RMK AO1 SLP158
T00891006





000
SAUS45 KMSO 191554
MTRP69
METAR KP69 191552Z AUTO 36004KT 05/00 A3002 RMK AO1 SLP176 T00500000





000
SAUS45 KMSO 191453
MTRP69
METAR KP69 191452Z AUTO 36005KT 02/M01 A3005 RMK AO1 SLP190
T00171006 58006





000
SAUS45 KMSO 191353
MTRP69
METAR KP69 191352Z AUTO VRB05KT 00/M01 A3007 RMK AO1 SLP195
T00001011





000
SAUS45 KMSO 191254
MTRP69
METAR KP69 191252Z AUTO VRB03KT 00/M01 A3007 RMK AO1 SLP195
T00001011





000
SAUS45 KMSO 191153
MTRP69
METAR KP69 191152Z AUTO 33004KT 00/M01 A3007 RMK AO1 SLP193 70002
T00001011 10039 20000 55000





000
SAUS45 KMSO 191054
MTRP69
METAR KP69 191052Z AUTO 30004KT 01/M01 A3007 RMK AO1 SLP187
T00061006





000
SAUS45 KMSO 190953
MTRP69
METAR KP69 190952Z AUTO 31003KT 01/M01 A3007 RMK AO1 SLP186
T00111006





000
SAUS45 KMSO 190853
MTRP69
METAR KP69 190852Z AUTO VRB03KT 02/00 A3007 RMK AO1 SLP189 T00170000
50002





000
SAUS45 KMSO 190754
MTRP69
METAR KP69 190752Z AUTO 33003KT 02/01 A3008 RMK AO1 SLP190 T00220006
401940022





000
SAUS45 KMSO 190654
MTRP69
METAR KP69 190652Z AUTO VRB03KT 03/01 A3007 RMK AO1 SLP188 T00330011





000
SAUS45 KMSO 190554
MTRP69
METAR KP69 190552Z AUTO 00000KT 04/01 A3007 RMK AO1 SLP186 T00390011
10156 20039 51013





000
SAUS45 KMSO 190454
MTRP69
METAR KP69 190452Z AUTO 00000KT 05/02 A3006 RMK AO1 SLP185 T00500017





000
SAUS45 KMSO 190354
MTRP69
METAR KP69 190352Z AUTO 00000KT 06/02 A3005 RMK AO1 SLP182 T00610022





000
SAUS45 KMSO 190254
MTRP69
METAR KP69 190252Z AUTO 00000KT 08/03 A3003 RMK AO1 SLP175 T00780033
53011





000
SAUS45 KMSO 190154
MTRP69
METAR KP69 190152Z AUTO 00000KT 10/03 A3001 RMK AO1 SLP167 T01000033





000
SAUS45 KMSO 190054
MTRP69
METAR KP69 190052Z AUTO VRB03KT 11/02 A3000 RMK AO1 SLP162 T01110017





000
SAUS45 KMSO 182353
MTRP69
METAR KP69 182352Z AUTO VRB03KT 13/M02 A2999 RMK AO1 SLP157
T01281022 10194 20117 55001





000
SAUS45 KMSO 182254
MTRP69
METAR KP69 182252Z AUTO 16007KT 17/M07 A2999 RMK AO1 SLP152
T01671072





000
SAUS45 KMSO 182154
MTRP69
METAR KP69 182152Z AUTO VRB05G24KT 16/M07 A2998 RMK AO1 SLP151
T01611067





000
SAUS45 KMSO 182054
MTRP69
METAR KP69 182052Z AUTO 06006G18KT 15/M05 A3000 RMK AO1 SLP155
T01501050 51004





000
SAUS45 KMSO 181954
MTRP69
METAR KP69 181952Z AUTO 12009G15KT 14/M03 A2999 RMK AO1 SLP153
T01441033





000
SAUS45 KMSO 181854
MTRP69
METAR KP69 181852Z AUTO VRB03KT 13/M02 A2999 RMK AO1 SLP156
T01331022





000
SAUS45 KMSO 181753
MTRP69
METAR KP69 181752Z AUTO 12006KT 13/01 A2998 RMK AO1 SLP153 60002
T01280011 10133 20061 51003





000
SAUS45 KMSO 181653
MTRP69
METAR KP69 181652Z AUTO 00000KT 11/06 A2998 RMK AO1 SLP155 T01060056





000
SAUS45 KMSO 181554
MTRP69
METAR KP69 181552Z AUTO 00000KT 08/06 A2998 RMK AO1 SLP156 T00780056





000
SAUS45 KMSO 181454
MTRP69
METAR KP69 181452Z AUTO 30003KT 07/06 A2997 RMK AO1 SLP154 60002
T00670056 51023





000
SAUS45 KMSO 181354
MTRP69
METAR KP69 181352Z AUTO VRB03KT 06/05 A2996 RMK AO1 SLP147 T00610050





000
SAUS45 KMSO 181254
MTRP69
METAR KP69 181252Z AUTO 00000KT 07/07 A2992 RMK AO1 SLP135 P0002
T00720067





000
SAUS45 KMSO 181154
MTRP69
METAR KP69 181152Z AUTO 00000KT 08/07 A2990 RMK AO1 SLP125 P0001
60020 70035 T00780072 10094 20078 53012





000
SAUS45 KMSO 181054
MTRP69
METAR KP69 181052Z AUTO 00000KT 08/07 A2988 RMK AO1 SLP114 T00780072





    US Dept of Commerce
    National Oceanic and Atmospheric Administration
    National Weather Service
    1325 East West Highway
    Silver Spring, MD 20910
    Page Author: NWS Internet Services Team
Disclaimer
Information Quality
Credits
Glossary
Privacy Policy
Freedom of Information Act (FOIA)
About Us
Career Opportunities